Impacts TAF Board
For situational awareness. Not to be used for flight planning purposes.
IDs:

KLUF - Phoenix/Luke AFB, AZ, US

Issued at 2000 UTC 02 Aug 2021
Updated at 2229 UTC 02 Aug 2021
Potential Impact None Slight Moderate High
Time2158Z 02/23Z 03/00Z 03/01Z 03/02Z 03/03Z 03/04Z 03/05Z 03/06Z 03/07Z 03/08Z 03/09Z 03/10Z 03/11Z>>
Type OBS PRVL PRVL PRVL PRVL PRVL PRVL PRVL PRVL PRVL PRVL PRVL PRVL PRVL
VIS 10 >6 >6 >6 >6 >6 >6 >6 >6 >6 >6 >6 >6 >6
CIG -- -- -- -- -- -- -- -- -- -- -- -- -- --
Cover CLR FEW FEW SKC SKC SKC SKC SKC SKC SKC SKC SKC SKC SKC
FltCat VFR VFR VFR VFR VFR VFR VFR VFR VFR VFR VFR VFR VFR VFR
WX -- -- -- -- -- -- -- -- -- -- -- -- -- --
WDir VRB 240 240 VRB VRB VRB VRB VRB VRB VRB VRB VRB VRB VRB
WSpd 0 9 9 6 6 6 6 6 6 6 6 6 6 6
WGst -- -- -- -- -- -- -- -- -- -- -- -- -- --
Raw TAF
TAF KLUF 022000Z 0220/0402 VRB06KT 9999 FEW130 QNH2985INS
  BECMG 0222/0223 24009KT 9999 FEW180 QNH2981INS
  BECMG 0301/0302 VRB06KT 9999 SKC QNH2970INS
  TEMPO 0322/0402 32015KT TX43/0223Z TN28/0313Z


Raw METAR
KLUF 022158Z AUTO 00000KT 10SM CLR 42/13 A2987 RMK AO2 SLP097 T04160132 $
KLUF 022058Z AUTO 00000KT 10SM CLR 41/14 A2990 RMK AO2 SLP108 T04080141 57025 $
KLUF 021958Z AUTO 15003KT 10SM CLR 40/15 A2993 RMK AO2 SLP118 T03970153 $

METAR Board
For situational awareness. Not to be used for flight planning purposes.